sensor_id;sensor_type;location;lat;lon;timestamp;P1;durP1;ratioP1;P2;durP2;ratioP2
2213;SDS011;1113;42.018;23.986;2023-01-28T00:00:45;54.40;;;36.20;;
2213;SDS011;1113;42.018;23.986;2023-01-28T00:03:13;54.00;;;36.58;;
2213;SDS011;1113;42.018;23.986;2023-01-28T00:05:41;54.45;;;34.60;;
2213;SDS011;1113;42.018;23.986;2023-01-28T00:08:07;92.10;;;56.92;;
2213;SDS011;1113;42.018;23.986;2023-01-28T00:10:35;103.13;;;66.07;;
2213;SDS011;1113;42.018;23.986;2023-01-28T00:13:03;104.40;;;67.32;;
2213;SDS011;1113;42.018;23.986;2023-01-28T00:15:30;120.45;;;73.38;;
2213;SDS011;1113;42.018;23.986;2023-01-28T00:17:56;121.82;;;78.72;;
2213;SDS011;1113;42.018;23.986;2023-01-28T00:20:24;118.55;;;78.55;;
2213;SDS011;1113;42.018;23.986;2023-01-28T00:22:51;116.68;;;78.97;;
2213;SDS011;1113;42.018;23.986;2023-01-28T00:25:17;105.65;;;65.55;;
2213;SDS011;1113;42.018;23.986;2023-01-28T00:27:44;107.07;;;67.68;;
2213;SDS011;1113;42.018;23.986;2023-01-28T00:30:11;108.60;;;69.55;;
2213;SDS011;1113;42.018;23.986;2023-01-28T00:32:38;102.53;;;67.70;;
2213;SDS011;1113;42.018;23.986;2023-01-28T00:35:05;91.10;;;60.00;;
2213;SDS011;1113;42.018;23.986;2023-01-28T00:37:33;93.82;;;56.75;;
2213;SDS011;1113;42.018;23.986;2023-01-28T00:40:00;83.45;;;53.38;;
2213;SDS011;1113;42.018;23.986;2023-01-28T00:42:27;90.57;;;57.05;;
2213;SDS011;1113;42.018;23.986;2023-01-28T00:44:53;98.85;;;61.67;;
2213;SDS011;1113;42.018;23.986;2023-01-28T00:47:20;82.30;;;53.38;;
2213;SDS011;1113;42.018;23.986;2023-01-28T00:49:47;76.97;;;49.97;;
2213;SDS011;1113;42.018;23.986;2023-01-28T00:52:13;83.63;;;52.13;;
2213;SDS011;1113;42.018;23.986;2023-01-28T00:54:41;85.60;;;54.38;;
2213;SDS011;1113;42.018;23.986;2023-01-28T00:57:08;79.13;;;50.80;;
2213;SDS011;1113;42.018;23.986;2023-01-28T00:59:34;71.90;;;51.53;;
2213;SDS011;1113;42.018;23.986;2023-01-28T01:02:01;78.90;;;50.63;;
2213;SDS011;1113;42.018;23.986;2023-01-28T01:04:36;82.22;;;53.63;;
2213;SDS011;1113;42.018;23.986;2023-01-28T01:07:02;92.70;;;57.60;;
2213;SDS011;1113;42.018;23.986;2023-01-28T01:09:29;79.22;;;53.28;;
2213;SDS011;1113;42.018;23.986;2023-01-28T01:11:57;84.15;;;52.47;;
2213;SDS011;1113;42.018;23.986;2023-01-28T01:14:24;79.28;;;51.33;;
2213;SDS011;1113;42.018;23.986;2023-01-28T01:16:50;72.88;;;50.40;;
2213;SDS011;1113;42.018;23.986;2023-01-28T01:19:17;82.75;;;54.05;;
2213;SDS011;1113;42.018;23.986;2023-01-28T01:21:43;89.75;;;56.95;;
2213;SDS011;1113;42.018;23.986;2023-01-28T01:24:14;91.97;;;58.33;;
2213;SDS011;1113;42.018;23.986;2023-01-28T01:26:40;91.55;;;59.30;;
2213;SDS011;1113;42.018;23.986;2023-01-28T01:29:08;103.85;;;65.78;;
2213;SDS011;1113;42.018;23.986;2023-01-28T01:31:35;119.88;;;78.03;;
2213;SDS011;1113;42.018;23.986;2023-01-28T01:34:01;114.90;;;75.30;;
2213;SDS011;1113;42.018;23.986;2023-01-28T01:36:28;114.97;;;72.00;;
2213;SDS011;1113;42.018;23.986;2023-01-28T01:38:54;111.25;;;72.65;;
2213;SDS011;1113;42.018;23.986;2023-01-28T01:41:22;118.90;;;73.82;;
2213;SDS011;1113;42.018;23.986;2023-01-28T01:43:51;106.18;;;66.15;;
2213;SDS011;1113;42.018;23.986;2023-01-28T01:46:19;105.03;;;63.88;;
2213;SDS011;1113;42.018;23.986;2023-01-28T01:48:46;95.45;;;61.67;;
2213;SDS011;1113;42.018;23.986;2023-01-28T01:51:14;95.60;;;62.53;;
2213;SDS011;1113;42.018;23.986;2023-01-28T01:53:43;93.00;;;60.97;;
2213;SDS011;1113;42.018;23.986;2023-01-28T01:56:11;86.97;;;57.65;;
2213;SDS011;1113;42.018;23.986;2023-01-28T01:58:40;85.45;;;56.58;;
2213;SDS011;1113;42.018;23.986;2023-01-28T02:01:07;82.72;;;53.97;;
2213;SDS011;1113;42.018;23.986;2023-01-28T02:03:37;87.60;;;55.80;;
2213;SDS011;1113;42.018;23.986;2023-01-28T02:06:07;90.07;;;56.35;;
2213;SDS011;1113;42.018;23.986;2023-01-28T02:08:33;81.32;;;53.33;;
2213;SDS011;1113;42.018;23.986;2023-01-28T02:11:01;78.90;;;54.10;;
2213;SDS011;1113;42.018;23.986;2023-01-28T02:13:30;79.40;;;56.00;;
2213;SDS011;1113;42.018;23.986;2023-01-28T02:15:57;95.60;;;62.97;;
2213;SDS011;1113;42.018;23.986;2023-01-28T02:18:25;96.57;;;63.50;;
2213;SDS011;1113;42.018;23.986;2023-01-28T02:21:07;93.72;;;60.45;;
2213;SDS011;1113;42.018;23.986;2023-01-28T02:23:40;91.03;;;61.72;;
2213;SDS011;1113;42.018;23.986;2023-01-28T02:28:58;102.28;;;63.10;;
2213;SDS011;1113;42.018;23.986;2023-01-28T02:31:27;104.63;;;65.43;;
2213;SDS011;1113;42.018;23.986;2023-01-28T02:33:57;127.93;;;73.43;;
2213;SDS011;1113;42.018;23.986;2023-01-28T02:36:26;112.03;;;71.80;;
2213;SDS011;1113;42.018;23.986;2023-01-28T02:38:53;160.18;;;97.72;;
2213;SDS011;1113;42.018;23.986;2023-01-28T02:41:22;135.70;;;83.03;;
2213;SDS011;1113;42.018;23.986;2023-01-28T02:43:50;129.57;;;84.20;;
2213;SDS011;1113;42.018;23.986;2023-01-28T02:46:19;132.43;;;85.63;;
2213;SDS011;1113;42.018;23.986;2023-01-28T02:49:04;127.18;;;81.03;;
2213;SDS011;1113;42.018;23.986;2023-01-28T02:51:33;116.18;;;74.47;;
2213;SDS011;1113;42.018;23.986;2023-01-28T02:54:07;90.78;;;62.15;;
2213;SDS011;1113;42.018;23.986;2023-01-28T02:56:37;89.55;;;58.05;;
2213;SDS011;1113;42.018;23.986;2023-01-28T02:59:07;87.95;;;59.28;;
2213;SDS011;1113;42.018;23.986;2023-01-28T03:01:52;79.10;;;54.47;;
2213;SDS011;1113;42.018;23.986;2023-01-28T03:04:22;55.95;;;38.60;;
2213;SDS011;1113;42.018;23.986;2023-01-28T03:06:52;53.83;;;38.17;;
2213;SDS011;1113;42.018;23.986;2023-01-28T03:09:19;42.55;;;31.25;;
2213;SDS011;1113;42.018;23.986;2023-01-28T03:11:51;37.75;;;27.92;;
2213;SDS011;1113;42.018;23.986;2023-01-28T03:14:36;34.55;;;24.45;;
2213;SDS011;1113;42.018;23.986;2023-01-28T03:17:23;33.50;;;23.58;;
2213;SDS011;1113;42.018;23.986;2023-01-28T03:20:08;27.52;;;19.35;;
2213;SDS011;1113;42.018;23.986;2023-01-28T03:22:52;28.30;;;20.42;;
2213;SDS011;1113;42.018;23.986;2023-01-28T03:25:37;31.00;;;21.00;;
2213;SDS011;1113;42.018;23.986;2023-01-28T03:28:22;29.63;;;22.33;;
2213;SDS011;1113;42.018;23.986;2023-01-28T03:31:08;31.13;;;21.45;;
2213;SDS011;1113;42.018;23.986;2023-01-28T03:33:54;28.30;;;19.27;;
2213;SDS011;1113;42.018;23.986;2023-01-28T03:36:40;28.67;;;18.65;;
2213;SDS011;1113;42.018;23.986;2023-01-28T03:39:13;14.15;;;10.23;;
2213;SDS011;1113;42.018;23.986;2023-01-28T03:41:40;10.13;;;7.03;;
2213;SDS011;1113;42.018;23.986;2023-01-28T03:44:06;12.30;;;7.60;;
2213;SDS011;1113;42.018;23.986;2023-01-28T03:46:50;12.63;;;10.30;;
2213;SDS011;1113;42.018;23.986;2023-01-28T03:49:18;12.98;;;9.55;;
2213;SDS011;1113;42.018;23.986;2023-01-28T03:51:45;12.95;;;9.77;;
2213;SDS011;1113;42.018;23.986;2023-01-28T03:54:11;13.40;;;9.88;;
2213;SDS011;1113;42.018;23.986;2023-01-28T03:56:38;14.43;;;9.23;;
2213;SDS011;1113;42.018;23.986;2023-01-28T03:59:04;13.30;;;9.45;;
2213;SDS011;1113;42.018;23.986;2023-01-28T04:01:31;15.50;;;10.40;;
2213;SDS011;1113;42.018;23.986;2023-01-28T04:03:57;12.73;;;8.20;;
2213;SDS011;1113;42.018;23.986;2023-01-28T04:06:25;12.85;;;8.20;;
2213;SDS011;1113;42.018;23.986;2023-01-28T04:08:53;11.63;;;8.00;;
2213;SDS011;1113;42.018;23.986;2023-01-28T04:11:23;10.45;;;9.45;;
2213;SDS011;1113;42.018;23.986;2023-01-28T04:13:50;9.93;;;7.38;;
2213;SDS011;1113;42.018;23.986;2023-01-28T04:16:17;7.53;;;5.35;;
2213;SDS011;1113;42.018;23.986;2023-01-28T04:18:44;4.38;;;3.60;;
2213;SDS011;1113;42.018;23.986;2023-01-28T04:21:11;5.07;;;3.70;;
2213;SDS011;1113;42.018;23.986;2023-01-28T04:23:39;5.45;;;3.85;;
2213;SDS011;1113;42.018;23.986;2023-01-28T04:26:05;6.75;;;5.60;;
2213;SDS011;1113;42.018;23.986;2023-01-28T04:28:32;4.50;;;3.63;;
2213;SDS011;1113;42.018;23.986;2023-01-28T04:30:59;4.05;;;3.00;;
2213;SDS011;1113;42.018;23.986;2023-01-28T04:33:25;3.90;;;3.10;;
2213;SDS011;1113;42.018;23.986;2023-01-28T04:35:52;4.15;;;3.30;;
2213;SDS011;1113;42.018;23.986;2023-01-28T04:38:18;5.70;;;3.47;;
2213;SDS011;1113;42.018;23.986;2023-01-28T04:40:49;4.65;;;3.38;;
2213;SDS011;1113;42.018;23.986;2023-01-28T04:43:15;4.20;;;3.78;;
2213;SDS011;1113;42.018;23.986;2023-01-28T04:45:42;4.68;;;3.17;;
2213;SDS011;1113;42.018;23.986;2023-01-28T04:48:08;6.88;;;4.45;;
2213;SDS011;1113;42.018;23.986;2023-01-28T04:50:35;6.35;;;4.70;;
2213;SDS011;1113;42.018;23.986;2023-01-28T04:53:01;3.70;;;2.92;;
2213;SDS011;1113;42.018;23.986;2023-01-28T04:55:28;4.47;;;3.35;;
2213;SDS011;1113;42.018;23.986;2023-01-28T04:57:56;4.07;;;3.30;;
2213;SDS011;1113;42.018;23.986;2023-01-28T05:00:22;4.50;;;3.67;;
2213;SDS011;1113;42.018;23.986;2023-01-28T05:02:49;4.30;;;3.00;;
2213;SDS011;1113;42.018;23.986;2023-01-28T05:05:15;3.70;;;2.50;;
2213;SDS011;1113;42.018;23.986;2023-01-28T05:07:42;3.78;;;2.50;;
2213;SDS011;1113;42.018;23.986;2023-01-28T05:10:09;4.47;;;2.92;;
2213;SDS011;1113;42.018;23.986;2023-01-28T05:12:35;3.53;;;2.95;;
2213;SDS011;1113;42.018;23.986;2023-01-28T05:15:05;4.20;;;3.00;;
2213;SDS011;1113;42.018;23.986;2023-01-28T05:17:32;2.70;;;2.25;;
2213;SDS011;1113;42.018;23.986;2023-01-28T05:19:58;4.43;;;3.88;;
2213;SDS011;1113;42.018;23.986;2023-01-28T05:22:25;5.88;;;3.55;;
2213;SDS011;1113;42.018;23.986;2023-01-28T05:24:51;7.10;;;5.53;;
2213;SDS011;1113;42.018;23.986;2023-01-28T05:27:18;5.45;;;4.40;;
2213;SDS011;1113;42.018;23.986;2023-01-28T05:29:44;3.40;;;3.05;;
2213;SDS011;1113;42.018;23.986;2023-01-28T05:32:12;3.45;;;2.60;;
2213;SDS011;1113;42.018;23.986;2023-01-28T05:34:39;5.40;;;3.95;;
2213;SDS011;1113;42.018;23.986;2023-01-28T05:37:05;9.05;;;6.85;;
2213;SDS011;1113;42.018;23.986;2023-01-28T05:39:32;10.98;;;7.80;;
2213;SDS011;1113;42.018;23.986;2023-01-28T05:41:58;8.10;;;5.88;;
2213;SDS011;1113;42.018;23.986;2023-01-28T05:44:25;7.32;;;6.20;;
2213;SDS011;1113;42.018;23.986;2023-01-28T05:46:51;8.20;;;7.35;;
2213;SDS011;1113;42.018;23.986;2023-01-28T05:49:19;7.45;;;6.20;;
2213;SDS011;1113;42.018;23.986;2023-01-28T05:51:46;13.30;;;8.23;;
2213;SDS011;1113;42.018;23.986;2023-01-28T05:54:13;10.90;;;6.93;;
2213;SDS011;1113;42.018;23.986;2023-01-28T05:56:40;9.40;;;6.50;;
2213;SDS011;1113;42.018;23.986;2023-01-28T05:59:09;26.83;;;21.42;;
2213;SDS011;1113;42.018;23.986;2023-01-28T06:01:35;11.93;;;8.23;;
2213;SDS011;1113;42.018;23.986;2023-01-28T06:04:02;12.52;;;9.32;;
2213;SDS011;1113;42.018;23.986;2023-01-28T06:06:30;21.73;;;15.48;;
2213;SDS011;1113;42.018;23.986;2023-01-28T06:08:56;20.13;;;12.65;;
2213;SDS011;1113;42.018;23.986;2023-01-28T06:11:23;20.65;;;12.95;;
2213;SDS011;1113;42.018;23.986;2023-01-28T06:13:49;12.70;;;9.13;;
2213;SDS011;1113;42.018;23.986;2023-01-28T06:16:16;14.20;;;8.63;;
2213;SDS011;1113;42.018;23.986;2023-01-28T06:18:42;18.08;;;12.27;;
2213;SDS011;1113;42.018;23.986;2023-01-28T06:21:09;8.98;;;7.07;;
2213;SDS011;1113;42.018;23.986;2023-01-28T06:23:37;10.13;;;6.57;;
2213;SDS011;1113;42.018;23.986;2023-01-28T06:26:03;18.15;;;14.25;;
2213;SDS011;1113;42.018;23.986;2023-01-28T06:28:30;32.30;;;21.92;;
2213;SDS011;1113;42.018;23.986;2023-01-28T06:30:57;24.30;;;16.10;;
2213;SDS011;1113;42.018;23.986;2023-01-28T06:33:23;19.60;;;13.57;;
2213;SDS011;1113;42.018;23.986;2023-01-28T06:35:50;11.45;;;9.25;;
2213;SDS011;1113;42.018;23.986;2023-01-28T06:38:16;15.20;;;11.50;;
2213;SDS011;1113;42.018;23.986;2023-01-28T06:40:45;9.65;;;7.38;;
2213;SDS011;1113;42.018;23.986;2023-01-28T06:43:15;6.93;;;5.68;;
2213;SDS011;1113;42.018;23.986;2023-01-28T06:45:42;11.40;;;8.30;;
2213;SDS011;1113;42.018;23.986;2023-01-28T06:48:08;11.90;;;8.32;;
2213;SDS011;1113;42.018;23.986;2023-01-28T06:50:35;13.05;;;9.73;;
2213;SDS011;1113;42.018;23.986;2023-01-28T06:53:01;15.98;;;10.80;;
2213;SDS011;1113;42.018;23.986;2023-01-28T06:55:28;14.85;;;10.20;;
2213;SDS011;1113;42.018;23.986;2023-01-28T06:57:55;12.35;;;9.18;;
2213;SDS011;1113;42.018;23.986;2023-01-28T07:00:22;13.15;;;10.20;;
2213;SDS011;1113;42.018;23.986;2023-01-28T07:02:48;9.77;;;8.52;;
2213;SDS011;1113;42.018;23.986;2023-01-28T07:05:15;9.20;;;6.40;;
2213;SDS011;1113;42.018;23.986;2023-01-28T07:07:42;8.82;;;6.72;;
2213;SDS011;1113;42.018;23.986;2023-01-28T07:10:10;10.65;;;7.93;;
2213;SDS011;1113;42.018;23.986;2023-01-28T07:12:36;9.30;;;6.78;;
2213;SDS011;1113;42.018;23.986;2023-01-28T07:15:05;10.23;;;8.05;;
2213;SDS011;1113;42.018;23.986;2023-01-28T07:17:31;15.70;;;10.75;;
2213;SDS011;1113;42.018;23.986;2023-01-28T07:19:58;16.55;;;11.57;;
2213;SDS011;1113;42.018;23.986;2023-01-28T07:22:24;13.10;;;9.30;;
2213;SDS011;1113;42.018;23.986;2023-01-28T07:24:54;11.23;;;9.43;;
2213;SDS011;1113;42.018;23.986;2023-01-28T07:27:47;15.57;;;12.30;;
2213;SDS011;1113;42.018;23.986;2023-01-28T07:30:16;17.55;;;14.73;;
2213;SDS011;1113;42.018;23.986;2023-01-28T07:32:43;13.82;;;11.60;;
2213;SDS011;1113;42.018;23.986;2023-01-28T07:35:09;13.48;;;8.68;;
2213;SDS011;1113;42.018;23.986;2023-01-28T07:37:36;13.98;;;10.10;;
2213;SDS011;1113;42.018;23.986;2023-01-28T07:40:03;13.27;;;10.75;;
2213;SDS011;1113;42.018;23.986;2023-01-28T07:42:29;16.45;;;12.93;;
2213;SDS011;1113;42.018;23.986;2023-01-28T07:44:57;21.80;;;14.98;;
2213;SDS011;1113;42.018;23.986;2023-01-28T07:47:24;19.67;;;12.50;;
2213;SDS011;1113;42.018;23.986;2023-01-28T07:49:51;23.40;;;16.10;;
2213;SDS011;1113;42.018;23.986;2023-01-28T07:52:17;36.38;;;22.50;;
2213;SDS011;1113;42.018;23.986;2023-01-28T07:54:44;27.73;;;18.35;;
2213;SDS011;1113;42.018;23.986;2023-01-28T07:57:10;32.42;;;21.02;;
2213;SDS011;1113;42.018;23.986;2023-01-28T07:59:37;18.25;;;13.13;;
2213;SDS011;1113;42.018;23.986;2023-01-28T08:02:03;19.55;;;13.43;;
2213;SDS011;1113;42.018;23.986;2023-01-28T08:04:31;31.10;;;22.48;;
2213;SDS011;1113;42.018;23.986;2023-01-28T08:07:11;21.08;;;18.02;;
2213;SDS011;1113;42.018;23.986;2023-01-28T08:09:40;17.73;;;14.23;;
2213;SDS011;1113;42.018;23.986;2023-01-28T08:12:07;13.30;;;11.23;;
2213;SDS011;1113;42.018;23.986;2023-01-28T08:14:33;11.10;;;9.90;;
2213;SDS011;1113;42.018;23.986;2023-01-28T08:17:00;8.25;;;6.10;;
2213;SDS011;1113;42.018;23.986;2023-01-28T08:19:26;8.63;;;7.32;;
2213;SDS011;1113;42.018;23.986;2023-01-28T08:21:54;9.63;;;7.45;;
2213;SDS011;1113;42.018;23.986;2023-01-28T08:24:21;15.68;;;9.02;;
2213;SDS011;1113;42.018;23.986;2023-01-28T08:26:47;16.48;;;10.65;;
2213;SDS011;1113;42.018;23.986;2023-01-28T08:29:14;16.55;;;10.75;;
2213;SDS011;1113;42.018;23.986;2023-01-28T08:31:40;31.27;;;16.67;;
2213;SDS011;1113;42.018;23.986;2023-01-28T08:34:07;49.58;;;27.15;;
2213;SDS011;1113;42.018;23.986;2023-01-28T08:36:33;24.48;;;15.27;;
2213;SDS011;1113;42.018;23.986;2023-01-28T08:39:01;16.70;;;12.52;;
2213;SDS011;1113;42.018;23.986;2023-01-28T08:41:28;16.02;;;11.93;;
2213;SDS011;1113;42.018;23.986;2023-01-28T08:43:55;12.20;;;8.82;;
2213;SDS011;1113;42.018;23.986;2023-01-28T08:46:21;10.95;;;8.05;;
2213;SDS011;1113;42.018;23.986;2023-01-28T08:48:48;15.27;;;10.18;;
2213;SDS011;1113;42.018;23.986;2023-01-28T08:51:15;13.18;;;9.82;;
2213;SDS011;1113;42.018;23.986;2023-01-28T08:53:41;8.77;;;6.90;;
2213;SDS011;1113;42.018;23.986;2023-01-28T08:56:09;9.75;;;7.00;;
2213;SDS011;1113;42.018;23.986;2023-01-28T08:58:35;12.18;;;8.68;;
2213;SDS011;1113;42.018;23.986;2023-01-28T09:01:03;23.77;;;17.15;;
2213;SDS011;1113;42.018;23.986;2023-01-28T09:03:29;28.40;;;21.00;;
2213;SDS011;1113;42.018;23.986;2023-01-28T09:05:58;21.63;;;16.95;;
2213;SDS011;1113;42.018;23.986;2023-01-28T09:08:25;15.13;;;11.05;;
2213;SDS011;1113;42.018;23.986;2023-01-28T09:10:53;10.98;;;9.15;;
2213;SDS011;1113;42.018;23.986;2023-01-28T09:13:21;14.25;;;10.48;;
2213;SDS011;1113;42.018;23.986;2023-01-28T09:15:48;14.02;;;10.43;;
2213;SDS011;1113;42.018;23.986;2023-01-28T09:18:15;20.25;;;15.35;;
2213;SDS011;1113;42.018;23.986;2023-01-28T09:20:41;16.92;;;13.95;;
2213;SDS011;1113;42.018;23.986;2023-01-28T09:23:08;19.02;;;13.30;;
2213;SDS011;1113;42.018;23.986;2023-01-28T09:25:35;12.80;;;8.75;;
2213;SDS011;1113;42.018;23.986;2023-01-28T09:28:01;10.90;;;7.95;;
2213;SDS011;1113;42.018;23.986;2023-01-28T09:30:29;13.68;;;9.40;;
2213;SDS011;1113;42.018;23.986;2023-01-28T09:32:56;9.93;;;7.22;;
2213;SDS011;1113;42.018;23.986;2023-01-28T09:35:23;9.32;;;7.75;;
2213;SDS011;1113;42.018;23.986;2023-01-28T09:37:50;25.60;;;16.55;;
2213;SDS011;1113;42.018;23.986;2023-01-28T09:40:18;23.35;;;14.73;;
2213;SDS011;1113;42.018;23.986;2023-01-28T09:42:58;17.50;;;12.82;;
2213;SDS011;1113;42.018;23.986;2023-01-28T09:45:31;10.55;;;9.38;;
2213;SDS011;1113;42.018;23.986;2023-01-28T09:47:59;25.20;;;17.90;;
2213;SDS011;1113;42.018;23.986;2023-01-28T09:50:30;12.30;;;9.20;;
2213;SDS011;1113;42.018;23.986;2023-01-28T09:52:59;18.63;;;13.27;;
2213;SDS011;1113;42.018;23.986;2023-01-28T09:55:29;19.45;;;13.13;;
2213;SDS011;1113;42.018;23.986;2023-01-28T09:57:57;33.13;;;23.33;;
2213;SDS011;1113;42.018;23.986;2023-01-28T10:00:24;16.55;;;12.77;;
2213;SDS011;1113;42.018;23.986;2023-01-28T10:03:00;10.82;;;8.60;;
2213;SDS011;1113;42.018;23.986;2023-01-28T10:05:34;18.60;;;12.40;;
2213;SDS011;1113;42.018;23.986;2023-01-28T10:08:05;25.20;;;15.20;;
2213;SDS011;1113;42.018;23.986;2023-01-28T10:10:37;18.95;;;13.98;;
2213;SDS011;1113;42.018;23.986;2023-01-28T10:15:56;31.25;;;19.25;;
2213;SDS011;1113;42.018;23.986;2023-01-28T10:18:29;23.33;;;15.57;;
2213;SDS011;1113;42.018;23.986;2023-01-28T10:20:59;13.00;;;9.25;;
2213;SDS011;1113;42.018;23.986;2023-01-28T10:23:29;14.30;;;11.00;;
2213;SDS011;1113;42.018;23.986;2023-01-28T10:25:57;13.98;;;9.38;;
2213;SDS011;1113;42.018;23.986;2023-01-28T10:28:25;15.70;;;11.52;;
2213;SDS011;1113;42.018;23.986;2023-01-28T10:30:53;9.48;;;6.15;;
2213;SDS011;1113;42.018;23.986;2023-01-28T10:33:21;13.02;;;10.35;;
2213;SDS011;1113;42.018;23.986;2023-01-28T10:35:49;23.58;;;18.95;;
2213;SDS011;1113;42.018;23.986;2023-01-28T10:38:16;11.93;;;10.48;;
2213;SDS011;1113;42.018;23.986;2023-01-28T10:40:45;15.27;;;12.00;;
2213;SDS011;1113;42.018;23.986;2023-01-28T10:43:13;22.98;;;16.27;;
2213;SDS011;1113;42.018;23.986;2023-01-28T10:45:41;10.30;;;7.90;;
2213;SDS011;1113;42.018;23.986;2023-01-28T10:48:12;9.32;;;7.63;;
2213;SDS011;1113;42.018;23.986;2023-01-28T10:50:49;10.73;;;6.93;;
2213;SDS011;1113;42.018;23.986;2023-01-28T10:53:16;10.32;;;8.05;;
2213;SDS011;1113;42.018;23.986;2023-01-28T10:55:45;12.40;;;9.85;;
2213;SDS011;1113;42.018;23.986;2023-01-28T10:58:13;12.45;;;9.68;;
2213;SDS011;1113;42.018;23.986;2023-01-28T11:00:42;14.02;;;9.27;;
2213;SDS011;1113;42.018;23.986;2023-01-28T11:03:15;12.85;;;9.02;;
2213;SDS011;1113;42.018;23.986;2023-01-28T11:05:48;11.75;;;8.80;;
2213;SDS011;1113;42.018;23.986;2023-01-28T11:08:17;12.43;;;8.73;;
2213;SDS011;1113;42.018;23.986;2023-01-28T11:10:44;13.57;;;9.88;;
2213;SDS011;1113;42.018;23.986;2023-01-28T11:13:15;11.18;;;8.30;;
2213;SDS011;1113;42.018;23.986;2023-01-28T11:15:45;13.25;;;7.72;;
2213;SDS011;1113;42.018;23.986;2023-01-28T11:18:14;10.18;;;7.18;;
2213;SDS011;1113;42.018;23.986;2023-01-28T11:20:42;8.95;;;6.60;;
2213;SDS011;1113;42.018;23.986;2023-01-28T11:23:18;16.73;;;14.93;;
2213;SDS011;1113;42.018;23.986;2023-01-28T11:25:47;9.35;;;8.15;;
2213;SDS011;1113;42.018;23.986;2023-01-28T11:28:15;16.52;;;13.05;;
2213;SDS011;1113;42.018;23.986;2023-01-28T11:30:42;10.95;;;8.65;;
2213;SDS011;1113;42.018;23.986;2023-01-28T11:33:13;10.05;;;8.63;;
2213;SDS011;1113;42.018;23.986;2023-01-28T11:35:40;16.55;;;11.32;;
2213;SDS011;1113;42.018;23.986;2023-01-28T11:38:13;10.68;;;9.45;;
2213;SDS011;1113;42.018;23.986;2023-01-28T11:40:49;9.32;;;8.15;;
2213;SDS011;1113;42.018;23.986;2023-01-28T11:43:17;14.57;;;10.73;;
2213;SDS011;1113;42.018;23.986;2023-01-28T11:45:46;17.90;;;13.00;;
2213;SDS011;1113;42.018;23.986;2023-01-28T11:48:18;18.65;;;14.10;;
2213;SDS011;1113;42.018;23.986;2023-01-28T11:50:49;14.85;;;10.70;;
2213;SDS011;1113;42.018;23.986;2023-01-28T11:53:23;10.05;;;8.43;;
2213;SDS011;1113;42.018;23.986;2023-01-28T11:55:59;34.67;;;25.05;;
2213;SDS011;1113;42.018;23.986;2023-01-28T11:58:30;19.63;;;15.65;;
2213;SDS011;1113;42.018;23.986;2023-01-28T12:01:01;18.60;;;14.95;;
2213;SDS011;1113;42.018;23.986;2023-01-28T12:03:40;12.02;;;9.45;;
2213;SDS011;1113;42.018;23.986;2023-01-28T12:08:54;23.80;;;17.40;;
2213;SDS011;1113;42.018;23.986;2023-01-28T12:11:26;20.77;;;13.35;;
2213;SDS011;1113;42.018;23.986;2023-01-28T12:14:11;15.07;;;9.98;;
2213;SDS011;1113;42.018;23.986;2023-01-28T12:16:45;14.82;;;9.98;;
2213;SDS011;1113;42.018;23.986;2023-01-28T12:19:22;16.60;;;12.10;;
2213;SDS011;1113;42.018;23.986;2023-01-28T12:24:36;13.43;;;9.68;;
2213;SDS011;1113;42.018;23.986;2023-01-28T12:27:09;10.45;;;6.50;;
2213;SDS011;1113;42.018;23.986;2023-01-28T12:29:40;21.35;;;14.57;;
2213;SDS011;1113;42.018;23.986;2023-01-28T12:32:24;24.80;;;14.93;;
2213;SDS011;1113;42.018;23.986;2023-01-28T12:35:01;23.40;;;15.60;;
2213;SDS011;1113;42.018;23.986;2023-01-28T12:37:34;15.93;;;11.77;;
2213;SDS011;1113;42.018;23.986;2023-01-28T12:40:04;9.23;;;8.02;;
2213;SDS011;1113;42.018;23.986;2023-01-28T12:42:37;24.10;;;16.70;;
2213;SDS011;1113;42.018;23.986;2023-01-28T12:45:11;29.40;;;18.08;;
2213;SDS011;1113;42.018;23.986;2023-01-28T12:47:41;12.27;;;8.52;;
2213;SDS011;1113;42.018;23.986;2023-01-28T12:50:11;9.43;;;7.60;;
2213;SDS011;1113;42.018;23.986;2023-01-28T12:52:39;14.10;;;10.32;;
2213;SDS011;1113;42.018;23.986;2023-01-28T12:55:11;15.90;;;12.13;;
2213;SDS011;1113;42.018;23.986;2023-01-28T12:57:40;8.88;;;6.95;;
2213;SDS011;1113;42.018;23.986;2023-01-28T13:00:14;9.02;;;7.07;;
2213;SDS011;1113;42.018;23.986;2023-01-28T13:02:41;10.82;;;8.05;;
2213;SDS011;1113;42.018;23.986;2023-01-28T13:05:10;9.95;;;7.78;;
2213;SDS011;1113;42.018;23.986;2023-01-28T13:07:40;11.70;;;7.80;;
2213;SDS011;1113;42.018;23.986;2023-01-28T13:10:11;9.52;;;6.75;;
2213;SDS011;1113;42.018;23.986;2023-01-28T13:12:38;10.65;;;7.65;;
2213;SDS011;1113;42.018;23.986;2023-01-28T13:15:11;14.43;;;11.35;;
2213;SDS011;1113;42.018;23.986;2023-01-28T13:17:38;9.98;;;7.47;;
2213;SDS011;1113;42.018;23.986;2023-01-28T13:20:12;8.70;;;6.75;;
2213;SDS011;1113;42.018;23.986;2023-01-28T13:22:39;10.38;;;7.25;;
2213;SDS011;1113;42.018;23.986;2023-01-28T13:25:17;11.25;;;8.23;;
2213;SDS011;1113;42.018;23.986;2023-01-28T13:27:52;13.07;;;8.95;;
2213;SDS011;1113;42.018;23.986;2023-01-28T13:30:25;14.55;;;11.10;;
2213;SDS011;1113;42.018;23.986;2023-01-28T13:32:56;13.02;;;9.60;;
2213;SDS011;1113;42.018;23.986;2023-01-28T13:35:27;12.32;;;8.30;;
2213;SDS011;1113;42.018;23.986;2023-01-28T13:37:55;12.88;;;9.48;;
2213;SDS011;1113;42.018;23.986;2023-01-28T13:40:23;15.32;;;11.90;;
2213;SDS011;1113;42.018;23.986;2023-01-28T13:42:57;17.05;;;14.25;;
2213;SDS011;1113;42.018;23.986;2023-01-28T13:45:25;15.23;;;11.80;;
2213;SDS011;1113;42.018;23.986;2023-01-28T13:47:53;16.15;;;11.90;;
2213;SDS011;1113;42.018;23.986;2023-01-28T13:50:22;11.32;;;7.82;;
2213;SDS011;1113;42.018;23.986;2023-01-28T13:52:50;12.00;;;9.05;;
2213;SDS011;1113;42.018;23.986;2023-01-28T13:55:19;19.08;;;13.65;;
2213;SDS011;1113;42.018;23.986;2023-01-28T14:00:42;16.30;;;12.65;;
2213;SDS011;1113;42.018;23.986;2023-01-28T14:08:51;20.65;;;16.52;;
2213;SDS011;1113;42.018;23.986;2023-01-28T14:11:45;19.52;;;14.77;;
2213;SDS011;1113;42.018;23.986;2023-01-28T14:17:01;16.98;;;13.50;;
2213;SDS011;1113;42.018;23.986;2023-01-28T14:19:30;16.08;;;12.60;;
2213;SDS011;1113;42.018;23.986;2023-01-28T14:21:57;20.60;;;16.77;;
2213;SDS011;1113;42.018;23.986;2023-01-28T14:24:24;17.75;;;13.77;;
2213;SDS011;1113;42.018;23.986;2023-01-28T14:26:54;20.50;;;14.50;;
2213;SDS011;1113;42.018;23.986;2023-01-28T14:29:27;26.95;;;16.25;;
2213;SDS011;1113;42.018;23.986;2023-01-28T14:32:04;20.80;;;15.25;;
2213;SDS011;1113;42.018;23.986;2023-01-28T14:34:31;24.25;;;17.50;;
2213;SDS011;1113;42.018;23.986;2023-01-28T14:37:00;26.70;;;18.55;;
2213;SDS011;1113;42.018;23.986;2023-01-28T14:39:28;20.90;;;15.85;;
2213;SDS011;1113;42.018;23.986;2023-01-28T14:41:56;22.90;;;15.38;;
2213;SDS011;1113;42.018;23.986;2023-01-28T14:44:27;23.60;;;16.58;;
2213;SDS011;1113;42.018;23.986;2023-01-28T14:47:01;23.60;;;16.85;;
2213;SDS011;1113;42.018;23.986;2023-01-28T14:49:37;14.43;;;10.32;;
2213;SDS011;1113;42.018;23.986;2023-01-28T14:52:11;16.00;;;11.90;;
2213;SDS011;1113;42.018;23.986;2023-01-28T14:54:44;17.40;;;13.15;;
2213;SDS011;1113;42.018;23.986;2023-01-28T14:57:20;15.40;;;12.07;;
2213;SDS011;1113;42.018;23.986;2023-01-28T14:59:49;11.75;;;8.80;;
2213;SDS011;1113;42.018;23.986;2023-01-28T15:02:17;11.10;;;8.68;;
2213;SDS011;1113;42.018;23.986;2023-01-28T15:04:45;10.05;;;7.35;;
2213;SDS011;1113;42.018;23.986;2023-01-28T15:07:15;12.60;;;9.57;;
2213;SDS011;1113;42.018;23.986;2023-01-28T15:09:43;12.55;;;10.40;;
2213;SDS011;1113;42.018;23.986;2023-01-28T15:12:09;17.48;;;12.75;;
2213;SDS011;1113;42.018;23.986;2023-01-28T15:14:36;22.08;;;15.77;;